Time;durP1;ratioP1;P1;durP2;ratioP2;P2;SDS_P1;SDS_P2;PMS_P1;PMS_P2;Temp;Humidity;BMP_temperature;BMP_pressure;BME280_temperature;BME280_humidity;BME280_pressure;Samples;Min_cycle;Max_cycle;Signal;HPM_P1;HPM_P2
2021/12/02 00:01:04;;;;;;;3.88;1.88;;;;;;;4.62;97.05;99655.03;5081398;28;20035;-75
2021/12/02 00:03:31;;;;;;;1.05;0.95;;;;;;;4.68;97.26;99657.16;5069774;28;20130;-74
2021/12/02 00:05:57;;;;;;;2.80;1.15;;;;;;;4.72;97.13;99655.06;5081934;28;20040;-72
2021/12/02 00:08:24;;;;;;;2.40;1.27;;;;;;;4.66;96.90;99653.84;5081724;28;20120;-73
2021/12/02 00:10:52;;;;;;;7.63;2.22;;;;;;;4.66;96.62;99659.03;5067547;28;20051;-74
2021/12/02 00:13:22;;;;;;;4.30;1.95;;;;;;;4.56;96.79;99669.28;5084840;28;20039;-74
2021/12/02 00:15:54;;;;;;;3.67;1.20;;;;;;;4.56;97.02;99668.44;5084111;28;20044;-74
2021/12/02 00:21:02;;;;;;;1.35;0.88;;;;;;;4.62;96.66;99668.84;5080645;28;20040;-74
2021/12/02 00:21:20;;;;;;;7.57;1.98;;;;;;;4.59;95.71;99668.22;5083297;28;20051;-74
2021/12/02 00:23:51;;;;;;;2.42;1.15;;;;;;;4.59;96.13;99674.28;5080507;28;20044;-73
2021/12/02 00:26:21;;;;;;;3.17;1.93;;;;;;;4.56;96.46;99671.88;5086520;28;20097;-76
2021/12/02 00:28:52;;;;;;;13.73;1.70;;;;;;;4.64;95.18;99668.75;5064758;28;20059;-74
2021/12/02 00:31:20;;;;;;;2.58;1.30;;;;;;;4.68;95.01;99676.19;5087043;28;20124;-73
2021/12/02 00:33:49;;;;;;;5.90;0.93;;;;;;;4.73;94.33;99674.94;5082983;28;20142;-75
2021/12/02 00:36:16;;;;;;;1.75;1.48;;;;;;;4.70;94.80;99687.31;5090119;28;20036;-74
2021/12/02 00:38:44;;;;;;;9.07;2.78;;;;;;;4.72;94.63;99672.44;5084004;28;20076;-75
2021/12/02 00:43:56;;;;;;;8.38;2.15;;;;;;;4.71;94.03;99669.97;5106283;27;20403;-74
2021/12/02 00:46:31;;;;;;;0.57;0.57;;;;;;;4.78;93.37;99662.44;5093067;28;20051;-71
2021/12/02 00:49:01;;;;;;;0.82;0.80;;;;;;;4.82;93.36;99676.88;5090496;28;20040;-75
2021/12/02 00:51:28;;;;;;;1.08;0.85;;;;;;;4.76;93.61;99682.53;5096297;28;20050;-73
2021/12/02 00:53:58;;;;;;;3.30;1.17;;;;;;;4.78;93.58;99674.59;5091834;28;20054;-71
2021/12/02 00:56:27;;;;;;;1.10;0.90;;;;;;;4.75;93.56;99693.88;5092211;28;20784;-76
2021/12/02 00:58:55;;;;;;;7.50;1.58;;;;;;;4.74;93.88;99691.38;5091475;28;20131;-74
2021/12/02 01:01:23;;;;;;;6.85;1.85;;;;;;;4.77;93.28;99692.00;5069413;28;20044;-73
2021/12/02 01:03:52;;;;;;;5.60;1.80;;;;;;;4.71;93.94;99689.00;5094322;28;20049;-73
2021/12/02 01:06:19;;;;;;;9.60;2.38;;;;;;;4.72;94.05;99687.25;5088136;28;20072;-74
2021/12/02 01:08:45;;;;;;;2.85;1.38;;;;;;;4.75;94.00;99687.84;5094049;28;20040;-73
2021/12/02 01:11:13;;;;;;;3.92;1.05;;;;;;;4.80;92.83;99689.16;5074719;28;20089;-73
2021/12/02 01:13:40;;;;;;;0.65;0.50;;;;;;;4.77;92.60;99697.19;5076540;28;20059;-72
2021/12/02 01:16:08;;;;;;;2.40;1.35;;;;;;;4.69;92.91;99695.25;5094917;28;20508;-73
2021/12/02 01:18:35;;;;;;;6.20;2.28;;;;;;;4.70;92.45;99689.94;5100077;28;20832;-72
2021/12/02 01:21:02;;;;;;;0.90;0.47;;;;;;;4.79;91.55;99692.72;5072548;28;20387;-75
2021/12/02 01:23:32;;;;;;;1.80;1.17;;;;;;;4.76;91.68;99681.69;5089522;28;20055;-72
2021/12/02 01:26:01;;;;;;;0.63;0.45;;;;;;;4.74;92.22;99696.59;5086629;28;20140;-75
2021/12/02 01:28:27;;;;;;;0.80;0.60;;;;;;;4.69;92.03;99690.88;5090759;28;20046;-72
2021/12/02 01:30:54;;;;;;;1.42;0.70;;;;;;;4.67;92.36;99691.94;5086759;28;20581;-73
2021/12/02 01:33:24;;;;;;;9.20;0.90;;;;;;;4.72;92.31;99691.47;5085742;28;20071;-73
2021/12/02 01:35:52;;;;;;;1.33;0.88;;;;;;;4.67;92.05;99700.56;5085949;28;20571;-73
2021/12/02 01:38:23;;;;;;;0.80;0.60;;;;;;;4.72;92.32;99696.69;5085050;28;20043;-72
2021/12/02 01:40:49;;;;;;;8.30;0.90;;;;;;;4.66;92.30;99698.06;5089964;28;20089;-74
2021/12/02 01:43:17;;;;;;;2.55;0.82;;;;;;;4.62;92.41;99694.84;5089994;28;20055;-74
2021/12/02 01:45:44;;;;;;;2.97;0.63;;;;;;;4.58;92.99;99696.03;5086456;28;20037;-73
2021/12/02 01:48:14;;;;;;;1.23;1.02;;;;;;;4.55;92.36;99704.03;5085854;28;20047;-74
2021/12/02 01:50:44;;;;;;;6.50;1.20;;;;;;;4.59;92.60;99707.25;5090939;28;20506;-74
2021/12/02 01:53:15;;;;;;;5.05;1.33;;;;;;;4.55;92.82;99709.22;5092223;28;20526;-73
2021/12/02 01:55:44;;;;;;;1.48;0.57;;;;;;;4.60;92.87;99717.53;5080893;28;20040;-73
2021/12/02 01:58:18;;;;;;;6.68;0.93;;;;;;;4.65;92.59;99709.41;5076158;28;20038;-72
2021/12/02 02:00:45;;;;;;;4.15;0.85;;;;;;;4.69;91.94;99710.84;5093688;28;20059;-73
2021/12/02 02:03:14;;;;;;;0.95;0.85;;;;;;;4.69;92.22;99724.69;5049468;28;20048;-73
2021/12/02 02:05:43;;;;;;;10.18;1.45;;;;;;;4.68;92.54;99730.00;5071065;28;20044;-74
2021/12/02 02:08:14;;;;;;;2.15;0.63;;;;;;;4.69;92.32;99729.06;5106720;28;20044;-74
2021/12/02 02:10:41;;;;;;;2.53;1.35;;;;;;;4.66;92.40;99729.28;5084455;28;20063;-74
2021/12/02 02:13:13;;;;;;;1.77;0.93;;;;;;;4.65;92.67;99720.66;5104985;28;20050;-74
2021/12/02 02:15:46;;;;;;;1.65;1.30;;;;;;;4.65;93.08;99714.59;5087022;28;20044;-73
2021/12/02 02:18:18;;;;;;;1.50;1.38;;;;;;;4.60;93.20;99716.72;5084285;28;20044;-73
2021/12/02 02:20:51;;;;;;;4.13;0.80;;;;;;;4.55;94.24;99713.63;5078573;28;20044;-72
2021/12/02 02:23:18;;;;;;;;;;;;;;;4.59;93.73;99710.69;5080002;28;20086;-73
2021/12/02 02:25:46;;;;;;;4.45;1.50;;;;;;;4.58;93.38;99703.81;5080016;28;19923;-73
2021/12/02 02:28:13;;;;;;;10.25;0.77;;;;;;;4.53;93.59;99715.50;5056417;28;20052;-73
2021/12/02 02:30:40;;;;;;;21.85;1.02;;;;;;;4.51;93.18;99718.22;5078095;28;20123;-72
2021/12/02 02:33:10;;;;;;;3.60;0.73;;;;;;;4.50;93.37;99710.50;5077387;28;20047;-73
2021/12/02 02:35:36;;;;;;;1.17;0.40;;;;;;;4.57;94.11;99714.31;5076258;28;20049;-74
2021/12/02 02:38:04;;;;;;;4.20;1.50;;;;;;;4.60;94.14;99719.31;5072780;28;20118;-73
2021/12/02 02:40:32;;;;;;;7.32;1.23;;;;;;;4.57;93.93;99722.97;5077468;28;20123;-74
2021/12/02 02:43:05;;;;;;;0.50;0.40;;;;;;;4.59;93.97;99725.44;5057074;28;20055;-72
2021/12/02 02:45:32;;;;;;;0.20;0.10;;;;;;;4.69;92.99;99736.88;5076379;28;20044;-72
2021/12/02 02:47:59;;;;;;;0.35;0.32;;;;;;;4.76;92.65;99739.75;5055418;28;20047;-73
2021/12/02 02:50:26;;;;;;;1.92;0.73;;;;;;;4.75;93.10;99742.47;5080730;28;20040;-73
2021/12/02 02:52:59;;;;;;;2.13;1.23;;;;;;;4.75;93.34;99727.69;5055028;28;20059;-73
2021/12/02 02:55:28;;;;;;;0.40;0.40;;;;;;;4.74;92.00;99736.44;5073128;28;20209;-73
2021/12/02 02:58:03;;;;;;;0.25;0.20;;;;;;;4.68;92.19;99724.81;5062882;28;20048;-72
2021/12/02 03:00:33;;;;;;;0.22;0.22;;;;;;;4.58;92.87;99723.78;5065850;28;20067;-73
2021/12/02 03:03:14;;;;;;;2.95;0.93;;;;;;;4.47;93.14;99721.94;5083143;28;20226;-73
2021/12/02 03:05:52;;;;;;;0.87;0.53;;;;;;;4.41;93.82;99717.19;5072888;28;20087;-74
2021/12/02 03:08:22;;;;;;;0.30;0.30;;;;;;;4.43;93.79;99714.47;5072873;28;20044;-72
2021/12/02 03:10:55;;;;;;;8.38;1.75;;;;;;;4.33;93.94;99709.09;5075556;28;20040;-72
2021/12/02 03:13:34;;;;;;;2.67;0.82;;;;;;;4.24;93.99;99703.69;5072228;28;20379;-71
2021/12/02 03:18:44;;;;;;;6.43;0.90;;;;;;;4.11;94.70;99705.50;5051314;28;20051;-73
2021/12/02 03:21:18;;;;;;;0.80;0.60;;;;;;;3.92;94.93;99712.06;5082994;28;20044;-72
2021/12/02 03:23:49;;;;;;;0.60;0.38;;;;;;;3.86;95.14;99718.50;5077858;28;20052;-72
2021/12/02 03:26:17;;;;;;;15.02;0.85;;;;;;;3.83;95.37;99717.88;5074260;28;20044;-74
2021/12/02 03:28:43;;;;;;;1.60;0.50;;;;;;;3.79;95.93;99714.66;5080567;28;20044;-72
2021/12/02 03:31:10;;;;;;;1.40;0.60;;;;;;;3.73;95.72;99712.50;5079099;28;20482;-75
2021/12/02 03:33:37;;;;;;;1.88;0.73;;;;;;;3.63;94.90;99711.44;5073770;28;20049;-72
2021/12/02 03:36:04;;;;;;;5.00;1.17;;;;;;;3.49;94.96;99708.91;5055706;28;20453;-74
2021/12/02 03:38:31;;;;;;;3.13;0.52;;;;;;;3.47;95.27;99726.38;5073998;28;20036;-73
2021/12/02 03:40:58;;;;;;;5.25;0.30;;;;;;;3.42;95.76;99723.25;5072506;28;20143;-74
2021/12/02 03:43:27;;;;;;;15.05;2.53;;;;;;;3.45;95.52;99730.84;5078485;28;20136;-74
2021/12/02 03:45:54;;;;;;;0.68;0.45;;;;;;;3.41;96.23;99724.16;5078503;28;20554;-74
2021/12/02 03:48:21;;;;;;;0.82;0.40;;;;;;;3.37;95.37;99716.69;5078303;28;20040;-73
2021/12/02 03:50:48;;;;;;;1.85;0.45;;;;;;;3.27;95.54;99729.44;5079134;28;20049;-72
2021/12/02 03:53:14;;;;;;;0.40;0.30;;;;;;;3.25;96.19;99730.47;5083196;28;20051;-71
2021/12/02 03:55:41;;;;;;;0.43;0.32;;;;;;;3.08;95.42;99727.34;5076139;28;20043;-74
2021/12/02 03:58:08;;;;;;;12.18;1.95;;;;;;;3.01;96.26;99728.63;5082889;28;20051;-73
2021/12/02 04:00:36;;;;;;;0.45;0.35;;;;;;;2.95;96.64;99735.06;5056529;28;20047;-73
2021/12/02 04:03:03;;;;;;;1.00;0.40;;;;;;;3.02;97.09;99733.75;5082447;28;20058;-73
2021/12/02 04:05:29;;;;;;;1.20;0.52;;;;;;;3.03;97.14;99739.75;5088341;28;20032;-72
2021/12/02 04:07:56;;;;;;;0.65;0.50;;;;;;;3.03;97.65;99745.78;5091772;28;20072;-74
2021/12/02 04:10:24;;;;;;;2.40;1.13;;;;;;;3.15;97.94;99737.19;5067245;28;20051;-74
2021/12/02 04:12:56;;;;;;;3.03;0.90;;;;;;;3.19;97.30;99736.09;5086802;28;20049;-72
2021/12/02 04:15:27;;;;;;;0.85;0.73;;;;;;;3.31;97.50;99717.94;5092018;28;20058;-73
2021/12/02 04:17:55;;;;;;;0.80;0.77;;;;;;;3.32;97.71;99724.78;5074176;28;20126;-74
2021/12/02 04:20:23;;;;;;;0.90;0.75;;;;;;;3.20;97.01;99722.19;5076796;28;20036;-73
2021/12/02 04:22:51;;;;;;;0.63;0.43;;;;;;;3.25;96.88;99733.06;5072038;28;20098;-73
2021/12/02 04:25:19;;;;;;;2.80;1.65;;;;;;;3.24;97.35;99737.41;5074691;28;20048;-73
2021/12/02 04:27:46;;;;;;;3.65;1.33;;;;;;;3.17;97.47;99730.97;5076213;28;20096;-73
2021/12/02 04:30:15;;;;;;;0.65;0.52;;;;;;;3.05;96.96;99737.91;5055498;28;20123;-73
2021/12/02 04:32:41;;;;;;;2.88;1.02;;;;;;;3.01;96.84;99737.25;5073833;28;20040;-74
2021/12/02 04:35:11;;;;;;;0.90;0.80;;;;;;;3.12;97.38;99744.34;5057664;28;20123;-72
2021/12/02 04:37:38;;;;;;;3.78;1.23;;;;;;;3.10;97.34;99741.88;5071493;28;20048;-73
2021/12/02 04:40:06;;;;;;;4.95;1.20;;;;;;;3.18;96.78;99740.41;5078776;28;20072;-74
2021/12/02 04:42:32;;;;;;;0.70;0.52;;;;;;;3.17;96.66;99736.16;5076526;28;20117;-72
2021/12/02 04:44:59;;;;;;;0.80;0.65;;;;;;;3.20;96.32;99748.13;5072246;28;20043;-75
2021/12/02 04:47:26;;;;;;;2.63;1.05;;;;;;;3.15;96.37;99741.56;5074931;28;20087;-73
2021/12/02 04:49:53;;;;;;;1.58;1.15;;;;;;;3.02;96.00;99748.47;5068119;28;20414;-73
2021/12/02 04:52:21;;;;;;;0.55;0.52;;;;;;;2.96;96.17;99746.25;5071701;28;20053;-73
2021/12/02 04:54:47;;;;;;;2.85;0.95;;;;;;;2.97;96.09;99745.34;5073376;28;20051;-73
2021/12/02 04:57:14;;;;;;;1.55;0.65;;;;;;;2.97;96.59;99745.34;5074732;28;20048;-72
2021/12/02 04:59:41;;;;;;;0.88;0.45;;;;;;;2.91;96.70;99745.75;5075992;28;20047;-73
2021/12/02 05:02:08;;;;;;;0.90;0.80;;;;;;;2.99;97.13;99748.69;5074561;28;20121;-74
2021/12/02 05:04:35;;;;;;;3.03;0.80;;;;;;;2.95;96.80;99744.59;5074416;28;20041;-75
2021/12/02 05:07:01;;;;;;;2.65;1.50;;;;;;;3.00;97.27;99747.72;5050459;28;20050;-73
2021/12/02 05:09:29;;;;;;;7.43;1.45;;;;;;;2.94;96.93;99742.94;5077497;28;20050;-73
2021/12/02 05:11:56;;;;;;;1.48;0.85;;;;;;;2.90;96.69;99759.63;5058917;28;20041;-72
2021/12/02 05:14:23;;;;;;;0.60;0.50;;;;;;;2.96;97.24;99751.44;5061952;28;20135;-75
2021/12/02 05:16:49;;;;;;;3.95;1.30;;;;;;;3.18;97.34;99749.97;5072434;28;20048;-74
2021/12/02 05:19:16;;;;;;;3.53;1.17;;;;;;;3.16;97.23;99750.06;5075687;28;20127;-73
2021/12/02 05:21:43;;;;;;;2.13;0.77;;;;;;;3.18;96.91;99748.19;5071633;28;20040;-73
2021/12/02 05:24:09;;;;;;;1.67;0.90;;;;;;;3.22;97.18;99741.06;5052180;28;20155;-73
2021/12/02 05:26:37;;;;;;;2.97;0.77;;;;;;;3.26;96.61;99748.53;5071053;28;20123;-73
2021/12/02 05:29:04;;;;;;;0.50;0.50;;;;;;;3.31;97.04;99745.66;5057389;28;20097;-74
2021/12/02 05:31:31;;;;;;;0.85;0.77;;;;;;;3.28;96.30;99733.72;5059512;28;20048;-76
2021/12/02 05:33:58;;;;;;;1.23;0.73;;;;;;;3.24;95.88;99740.00;5074898;28;20449;-75
2021/12/02 05:36:24;;;;;;;0.95;0.65;;;;;;;3.14;96.19;99743.31;5073055;28;22005;-71
2021/12/02 05:38:51;;;;;;;5.50;1.70;;;;;;;3.14;96.25;99737.31;5075284;28;20050;-71
2021/12/02 05:41:18;;;;;;;1.00;0.45;;;;;;;3.11;96.25;99751.31;5078282;28;20041;-73
2021/12/02 05:43:46;;;;;;;1.27;0.73;;;;;;;3.12;96.18;99749.53;5071427;28;20131;-73
2021/12/02 05:46:13;;;;;;;0.77;0.43;;;;;;;3.01;95.78;99751.97;5064438;28;20048;-73
2021/12/02 05:48:43;;;;;;;1.58;0.63;;;;;;;3.02;95.83;99756.25;5076198;28;20075;-70
2021/12/02 05:51:10;;;;;;;2.60;0.68;;;;;;;3.01;95.79;99760.59;5062488;28;20094;-71
2021/12/02 05:53:36;;;;;;;9.20;0.93;;;;;;;2.96;96.10;99764.41;5081164;28;20055;-72
2021/12/02 05:56:03;;;;;;;0.98;0.82;;;;;;;3.01;95.65;99773.56;5067810;28;20498;-74
2021/12/02 05:58:30;;;;;;;1.92;0.52;;;;;;;2.97;95.71;99782.47;5088111;28;20040;-73
2021/12/02 06:00:58;;;;;;;0.60;0.40;;;;;;;3.03;95.74;99776.06;5084219;28;20049;-73
2021/12/02 06:03:24;;;;;;;0.55;0.45;;;;;;;2.94;95.60;99787.88;5085957;28;20119;-71
2021/12/02 06:05:51;;;;;;;1.00;0.73;;;;;;;3.03;95.60;99791.63;5098672;28;20437;-72
2021/12/02 06:08:18;;;;;;;25.50;1.08;;;;;;;3.09;95.75;99778.25;5088364;28;20084;-71
2021/12/02 06:10:45;;;;;;;2.92;1.27;;;;;;;3.16;95.47;99784.75;5080441;28;20071;-73
2021/12/02 06:13:12;;;;;;;0.40;0.40;;;;;;;3.15;95.27;99780.47;5063054;28;20043;-74
2021/12/02 06:15:38;;;;;;;2.13;0.40;;;;;;;3.27;95.08;99786.53;5082813;28;20036;-71
2021/12/02 06:18:08;;;;;;;0.43;0.40;;;;;;;3.30;94.80;99782.91;5079428;28;20044;-70
2021/12/02 06:20:35;;;;;;;1.55;0.47;;;;;;;3.30;94.57;99788.94;5081079;28;20036;-71
2021/12/02 06:23:02;;;;;;;9.80;0.60;;;;;;;3.34;94.56;99792.16;5086854;28;20104;-71
2021/12/02 06:25:47;;;;;;;0.85;0.52;;;;;;;3.37;94.87;99797.16;5088021;28;20032;-71
2021/12/02 06:28:15;;;;;;;0.85;0.55;;;;;;;3.36;94.52;99793.72;5079093;28;20048;-72
2021/12/02 06:30:41;;;;;;;1.55;0.40;;;;;;;3.42;94.26;99801.09;5058383;28;20127;-72
2021/12/02 06:33:10;;;;;;;1.48;0.50;;;;;;;3.39;94.63;99816.06;5081703;28;20075;-71
2021/12/02 06:35:37;;;;;;;0.57;0.50;;;;;;;3.39;94.39;99821.25;5073154;28;20142;-71
2021/12/02 06:38:03;;;;;;;0.20;0.20;;;;;;;3.44;93.67;99820.03;5063664;28;20075;-71
2021/12/02 06:40:31;;;;;;;0.38;0.35;;;;;;;3.41;93.65;99830.59;5076977;28;20032;-72
2021/12/02 06:42:58;;;;;;;3.05;0.70;;;;;;;3.45;93.85;99831.22;5078614;28;20212;-71
2021/12/02 06:45:24;;;;;;;0.55;0.40;;;;;;;3.44;93.80;99830.41;5082002;28;20047;-72
2021/12/02 06:47:53;;;;;;;0.20;0.20;;;;;;;3.44;93.74;99830.41;5078408;28;20619;-73
2021/12/02 06:50:23;;;;;;;1.48;0.45;;;;;;;3.48;93.92;99834.47;5064379;28;20045;-72
2021/12/02 06:52:51;;;;;;;5.03;0.35;;;;;;;3.50;94.15;99845.56;5081335;28;20044;-73
2021/12/02 06:55:18;;;;;;;0.90;0.50;;;;;;;3.47;94.64;99835.41;5081256;28;20055;-73
2021/12/02 06:57:45;;;;;;;0.68;0.63;;;;;;;3.45;94.97;99832.06;5076856;28;20083;-72
2021/12/02 07:00:13;;;;;;;10.27;1.10;;;;;;;3.44;94.56;99838.19;5082361;28;20048;-72
2021/12/02 07:02:40;;;;;;;0.85;0.65;;;;;;;3.34;95.29;99839.72;5079195;28;20135;-71
2021/12/02 07:05:10;;;;;;;0.80;0.40;;;;;;;3.33;95.01;99837.22;5082595;28;20047;-72
2021/12/02 07:07:38;;;;;;;0.45;0.30;;;;;;;3.28;95.43;99842.69;5060840;28;20058;-71
2021/12/02 07:10:06;;;;;;;14.88;0.98;;;;;;;3.23;95.70;99842.19;5079803;28;20105;-75
2021/12/02 07:12:34;;;;;;;0.32;0.30;;;;;;;3.25;95.44;99850.66;5079619;28;20046;-73
2021/12/02 07:15:06;;;;;;;2.40;0.60;;;;;;;3.19;95.58;99855.44;5080765;28;20044;-72
2021/12/02 07:17:33;;;;;;;0.40;0.40;;;;;;;3.05;95.62;99858.03;5083005;28;20051;-72
2021/12/02 07:20:00;;;;;;;7.85;1.30;;;;;;;3.04;95.87;99861.56;5083780;28;20089;-71
2021/12/02 07:22:27;;;;;;;2.22;1.13;;;;;;;3.03;95.46;99866.84;5082438;28;20048;-72
2021/12/02 07:24:55;;;;;;;0.50;0.40;;;;;;;2.99;95.57;99873.19;5065080;28;20052;-75
2021/12/02 07:27:22;;;;;;;0.98;0.77;;;;;;;2.98;95.58;99871.50;5080057;28;20134;-71
2021/12/02 07:29:49;;;;;;;0.45;0.45;;;;;;;2.97;95.34;99880.22;5080588;28;20045;-75
2021/12/02 07:32:16;;;;;;;0.30;0.22;;;;;;;2.97;95.12;99875.03;5079386;28;20047;-72
2021/12/02 07:34:44;;;;;;;0.25;0.20;;;;;;;2.97;95.13;99885.41;5077733;28;20433;-72
2021/12/02 07:37:12;;;;;;;0.40;0.30;;;;;;;2.93;95.58;99883.91;5081894;28;20084;-71
2021/12/02 07:39:38;;;;;;;16.10;0.93;;;;;;;2.87;95.99;99884.31;5091254;28;20051;-76
2021/12/02 07:42:06;;;;;;;5.38;0.50;;;;;;;2.85;95.80;99886.16;5062966;28;20099;-73
2021/12/02 07:44:34;;;;;;;0.20;0.20;;;;;;;2.74;96.33;99891.19;5061172;28;20052;-73
2021/12/02 07:47:01;;;;;;;0.63;0.50;;;;;;;2.61;96.33;99882.47;5097645;28;20036;-72
2021/12/02 07:49:28;;;;;;;0.30;0.30;;;;;;;2.51;96.84;99881.34;5061569;28;20122;-71
2021/12/02 07:51:57;;;;;;;0.25;0.25;;;;;;;2.37;96.91;99894.28;5076813;28;20127;-73
2021/12/02 07:54:24;;;;;;;0.95;0.63;;;;;;;2.36;96.85;99907.34;5082757;28;20040;-72
2021/12/02 07:56:50;;;;;;;0.82;0.47;;;;;;;2.29;97.35;99906.88;5088137;28;20067;-71
2021/12/02 07:59:19;;;;;;;1.42;0.63;;;;;;;2.25;96.93;99900.22;5078142;28;20088;-70
2021/12/02 08:01:48;;;;;;;0.95;0.82;;;;;;;2.20;97.46;99902.22;5102811;28;20048;-74
2021/12/02 08:04:14;;;;;;;0.35;0.35;;;;;;;2.24;97.53;99900.28;5062044;28;20044;-71
2021/12/02 08:06:42;;;;;;;1.00;0.80;;;;;;;2.23;97.57;99908.97;5083831;28;20048;-70
2021/12/02 08:09:13;;;;;;;1.90;0.93;;;;;;;2.16;97.77;99907.66;5054971;28;20067;-73
2021/12/02 08:11:40;;;;;;;1.20;0.82;;;;;;;2.15;98.01;99916.38;5076115;28;20052;-70
2021/12/02 08:14:12;;;;;;;0.63;0.52;;;;;;;2.16;98.10;99916.28;5077842;28;20550;-74
2021/12/02 08:16:40;;;;;;;2.30;1.58;;;;;;;2.15;98.39;99925.00;5078470;28;20139;-70
2021/12/02 08:19:07;;;;;;;1.00;0.52;;;;;;;2.31;98.31;99930.94;5074826;28;20085;-70
2021/12/02 08:21:33;;;;;;;1.05;0.60;;;;;;;2.57;98.33;99943.19;5078097;28;20048;-68
2021/12/02 08:24:00;;;;;;;0.73;0.68;;;;;;;2.90;98.66;99930.81;5054090;28;20064;-70
2021/12/02 08:26:27;;;;;;;1.10;0.85;;;;;;;2.95;97.89;99933.94;5057625;28;20050;-70
2021/12/02 08:28:53;;;;;;;0.90;0.85;;;;;;;2.91;97.65;99940.25;5076857;28;20048;-68
2021/12/02 08:31:20;;;;;;;0.82;0.75;;;;;;;3.03;96.77;99921.34;5077265;28;20040;-68
2021/12/02 08:33:50;;;;;;;1.42;1.00;;;;;;;3.19;95.67;99935.88;5077790;28;20043;-69
2021/12/02 08:36:18;;;;;;;0.45;0.35;;;;;;;3.48;95.04;99933.13;5074389;28;20093;-69
2021/12/02 08:38:47;;;;;;;2.20;1.58;;;;;;;3.89;93.52;99936.50;5076748;28;20105;-69
2021/12/02 08:41:17;;;;;;;1.95;1.42;;;;;;;4.01;91.59;99935.69;5078056;28;20060;-68
2021/12/02 08:43:44;;;;;;;1.17;0.90;;;;;;;3.84;91.79;99948.13;5078648;28;20058;-67
2021/12/02 08:46:10;;;;;;;1.70;1.15;;;;;;;3.61;92.19;99952.19;5079075;28;20123;-68
2021/12/02 08:48:37;;;;;;;0.73;0.55;;;;;;;3.70;93.28;99955.94;5076189;28;20038;-71
2021/12/02 08:51:05;;;;;;;4.43;1.15;;;;;;;4.04;91.99;99964.09;5079468;28;20052;-68
2021/12/02 08:53:32;;;;;;;1.02;0.90;;;;;;;3.87;90.74;99953.09;5078163;28;20123;-70
2021/12/02 08:55:59;;;;;;;2.92;1.42;;;;;;;3.64;92.59;99959.78;5082029;28;20562;-71
2021/12/02 08:58:27;;;;;;;1.90;1.55;;;;;;;3.63;92.70;99960.72;5086174;28;20070;-68
2021/12/02 09:00:54;;;;;;;1.60;1.45;;;;;;;3.61;92.71;99972.97;5072662;28;20090;-72
2021/12/02 09:03:22;;;;;;;1.30;1.20;;;;;;;3.64;92.61;99972.78;5079212;28;20067;-72
2021/12/02 09:05:49;;;;;;;2.30;1.55;;;;;;;3.71;92.44;99971.47;5080929;28;20051;-73
2021/12/02 09:08:19;;;;;;;2.03;1.40;;;;;;;3.90;91.98;99978.91;5079993;28;20036;-72
2021/12/02 09:10:46;;;;;;;1.30;0.80;;;;;;;4.10;91.33;99987.06;5081488;28;20129;-72
2021/12/02 09:13:13;;;;;;;1.05;0.82;;;;;;;4.06;91.40;99993.44;5084409;28;20043;-74
2021/12/02 09:15:40;;;;;;;1.10;1.00;;;;;;;4.07;90.77;99995.06;5080367;28;20036;-68
2021/12/02 09:18:07;;;;;;;1.02;0.90;;;;;;;3.95;92.30;99995.88;5077919;28;20512;-73
2021/12/02 09:20:34;;;;;;;2.88;1.50;;;;;;;3.91;92.54;100002.16;5080281;28;20583;-73
2021/12/02 09:23:00;;;;;;;1.67;1.38;;;;;;;3.89;92.19;100000.59;5082847;28;20097;-73
2021/12/02 09:25:28;;;;;;;1.30;1.10;;;;;;;3.72;92.29;100001.69;5078830;28;20055;-73
2021/12/02 09:27:55;;;;;;;1.75;1.00;;;;;;;3.69;92.76;100009.66;5062396;28;20044;-73
2021/12/02 09:30:22;;;;;;;1.45;1.08;;;;;;;4.20;91.76;100009.78;5085123;28;20044;-71
2021/12/02 09:32:49;;;;;;;1.95;1.42;;;;;;;4.77;90.42;100009.38;5089401;28;20040;-74
2021/12/02 09:35:15;;;;;;;2.10;1.42;;;;;;;5.60;86.80;100007.84;5062921;28;20134;-72
2021/12/02 09:37:42;;;;;;;1.45;1.23;;;;;;;5.78;85.22;99997.94;5082618;28;20043;-72
2021/12/02 09:40:12;;;;;;;1.23;1.13;;;;;;;5.85;83.31;100010.41;5077614;28;20072;-71
2021/12/02 09:42:40;;;;;;;3.40;1.33;;;;;;;5.63;84.85;100012.00;5078339;28;20059;-73
2021/12/02 09:45:08;;;;;;;7.43;1.50;;;;;;;4.99;85.99;100021.78;5083601;28;20083;-70
2021/12/02 09:47:37;;;;;;;1.17;1.05;;;;;;;4.55;88.79;100036.91;5085032;28;20044;-73
2021/12/02 09:50:07;;;;;;;2.30;1.55;;;;;;;4.07;90.71;100042.69;5067357;28;20044;-73
2021/12/02 09:52:35;;;;;;;2.33;0.73;;;;;;;3.82;91.33;100035.69;5087078;28;20123;-73
2021/12/02 09:55:06;;;;;;;3.90;1.30;;;;;;;3.69;92.04;100043.44;5107056;28;20038;-71
2021/12/02 09:57:38;;;;;;;2.35;0.77;;;;;;;3.61;92.30;100042.25;5084257;28;20052;-69
2021/12/02 10:00:10;;;;;;;1.48;1.25;;;;;;;3.49;92.82;100032.59;5096273;28;20040;-70
2021/12/02 10:02:42;;;;;;;7.85;0.95;;;;;;;3.40;93.51;100035.75;5082476;28;20063;-69
2021/12/02 10:05:13;;;;;;;1.10;1.00;;;;;;;3.36;94.50;100045.50;5076411;28;20063;-68
2021/12/02 10:07:53;;;;;;;3.83;1.50;;;;;;;3.40;94.33;100041.81;5077720;28;20044;-70
2021/12/02 10:10:29;;;;;;;1.88;0.80;;;;;;;3.57;93.82;100046.78;5077257;28;20035;-69
2021/12/02 10:13:14;;;;;;;1.05;0.73;;;;;;;3.77;92.73;100035.16;5079804;28;20059;-71
2021/12/02 10:15:51;;;;;;;0.38;0.35;;;;;;;3.75;91.97;100039.63;5079050;28;20048;-70
2021/12/02 10:18:18;;;;;;;4.68;1.23;;;;;;;3.73;92.14;100042.31;5077982;28;20119;-72
2021/12/02 10:20:49;;;;;;;0.60;0.55;;;;;;;3.77;91.89;100046.38;5079110;28;20048;-71
2021/12/02 10:23:19;;;;;;;0.93;0.85;;;;;;;4.02;92.32;100043.91;5081037;28;20059;-71
2021/12/02 10:25:48;;;;;;;1.75;1.40;;;;;;;4.33;90.99;100041.00;5074167;28;20039;-75
2021/12/02 10:28:16;;;;;;;1.38;0.73;;;;;;;4.08;90.26;100041.75;5080069;28;20040;-72
2021/12/02 10:30:46;;;;;;;1.15;0.88;;;;;;;3.99;90.92;100036.28;5058317;28;20059;-74
2021/12/02 10:33:14;;;;;;;13.57;0.90;;;;;;;3.88;91.21;100038.75;5077943;28;20059;-75
2021/12/02 10:35:43;;;;;;;1.25;0.90;;;;;;;4.05;91.70;100038.53;5077346;28;20051;-74
2021/12/02 10:38:32;;;;;;;1.38;0.77;;;;;;;4.86;90.10;100029.56;5073295;28;20524;-72
2021/12/02 10:41:00;;;;;;;4.38;1.35;;;;;;;5.22;87.01;100014.03;5081376;28;20053;-73
2021/12/02 10:43:27;;;;;;;1.00;0.90;;;;;;;5.46;86.84;100024.53;5078191;28;20123;-72
2021/12/02 10:46:14;;;;;;;0.82;0.70;;;;;;;5.82;84.60;100015.84;5062482;28;20060;-72
2021/12/02 10:48:49;;;;;;;1.38;1.08;;;;;;;5.87;84.07;100018.09;5078545;28;20050;-71
2021/12/02 10:51:38;;;;;;;2.22;0.88;;;;;;;5.46;84.61;100027.97;5069948;28;20051;-72
2021/12/02 10:54:08;;;;;;;1.63;0.85;;;;;;;5.24;86.32;100033.00;5059856;28;20140;-72
2021/12/02 10:56:38;;;;;;;2.83;1.05;;;;;;;4.94;87.01;100039.44;5078969;28;20052;-72
2021/12/02 10:59:24;;;;;;;2.08;1.27;;;;;;;4.96;86.82;100033.22;5076598;28;20036;-73
2021/12/02 11:01:53;;;;;;;3.95;1.48;;;;;;;5.01;86.99;100035.50;5076869;28;20068;-71
2021/12/02 11:04:21;;;;;;;6.25;1.73;;;;;;;4.94;85.58;100034.25;5076015;28;20098;-72
2021/12/02 11:06:50;;;;;;;0.88;0.60;;;;;;;4.92;85.10;100034.38;5079094;28;20418;-72
2021/12/02 11:09:27;;;;;;;7.90;1.25;;;;;;;4.54;86.18;100043.03;5079314;28;20036;-72
2021/12/02 11:12:08;;;;;;;1.23;0.70;;;;;;;4.36;85.96;100052.03;5079050;28;20043;-71
2021/12/02 11:14:35;;;;;;;0.20;0.20;;;;;;;4.32;87.27;100047.13;5074413;28;20082;-73
2021/12/02 11:17:13;;;;;;;3.33;0.75;;;;;;;4.58;86.04;100048.88;5067650;28;20570;-71
2021/12/02 11:19:44;;;;;;;1.67;0.75;;;;;;;4.38;85.93;100046.75;5074393;28;20197;-73
2021/12/02 11:22:13;;;;;;;1.20;0.70;;;;;;;4.33;86.69;100052.25;5078816;28;20074;-72
2021/12/02 11:24:40;;;;;;;18.50;1.00;;;;;;;4.29;87.00;100049.94;5060680;28;20123;-71
2021/12/02 11:27:09;;;;;;;0.80;0.40;;;;;;;4.33;85.86;100052.25;5079814;28;20144;-73
2021/12/02 11:29:57;;;;;;;1.65;1.13;;;;;;;4.71;85.71;100047.16;5081120;28;20113;-69
2021/12/02 11:32:28;;;;;;;0.80;0.60;;;;;;;4.79;86.46;100056.94;5069930;28;20123;-69
2021/12/02 11:35:02;;;;;;;0.98;0.73;;;;;;;4.93;85.42;100056.00;5086380;28;20036;-70
2021/12/02 11:37:29;;;;;;;4.45;1.05;;;;;;;4.82;84.35;100056.72;5069673;28;20139;-72
2021/12/02 11:39:57;;;;;;;7.35;1.95;;;;;;;4.98;84.83;100056.53;5070295;28;20050;-71
2021/12/02 11:42:24;;;;;;;1.63;1.05;;;;;;;5.16;85.18;100060.50;5085821;28;20036;-72
2021/12/02 11:44:50;;;;;;;3.28;1.17;;;;;;;5.03;85.04;100055.31;5082039;28;20085;-71
2021/12/02 11:47:18;;;;;;;0.90;0.70;;;;;;;4.86;84.81;100057.34;5081476;28;20055;-73
2021/12/02 11:49:46;;;;;;;0.68;0.63;;;;;;;4.81;86.13;100057.66;5087690;28;20040;-71
2021/12/02 11:52:13;;;;;;;1.00;0.50;;;;;;;4.74;85.88;100064.19;5100407;28;20027;-71